Time;durP1;ratioP1;P1;durP2;ratioP2;P2;SDS_P1;SDS_P2;PMS_P1;PMS_P2;Temp;Humidity;BMP_temperature;BMP_pressure;BME280_temperature;BME280_humidity;BME280_pressure;Samples;Min_cycle;Max_cycle;Signal;HPM_P1;HPM_P2
2023/09/12 00:02:04;;;;;;;38.10;22.52;;;18.60;99.90;;;;;;5047422;28;20062;-74
2023/09/12 00:04:30;;;;;;;31.92;21.00;;;18.50;99.90;;;;;;5056126;28;20578;-74
2023/09/12 00:06:56;;;;;;;38.67;21.75;;;18.60;99.90;;;;;;5036578;28;20407;-76
2023/09/12 00:09:21;;;;;;;34.92;21.75;;;18.60;99.90;;;;;;5037096;28;20044;-74
2023/09/12 00:11:47;;;;;;;35.67;21.23;;;18.60;99.90;;;;;;5051382;28;20032;-75
2023/09/12 00:14:17;;;;;;;40.13;22.88;;;18.70;99.90;;;;;;5048888;28;20044;-75
2023/09/12 00:16:43;;;;;;;37.70;22.08;;;18.70;99.90;;;;;;5048384;28;20048;-75
2023/09/12 00:19:08;;;;;;;42.53;22.48;;;18.70;99.90;;;;;;5039765;28;20035;-74
2023/09/12 00:21:34;;;;;;;41.90;21.98;;;18.70;99.90;;;;;;5048422;28;20111;-74
2023/09/12 00:23:59;;;;;;;38.67;22.13;;;18.70;99.90;;;;;;5045143;28;20044;-74
2023/09/12 00:26:25;;;;;;;36.92;22.10;;;18.70;99.90;;;;;;5035704;28;20509;-74
2023/09/12 00:28:51;;;;;;;36.28;22.02;;;18.70;99.90;;;;;;5034896;28;20173;-74
2023/09/12 00:31:16;;;;;;;41.55;22.40;;;18.60;99.90;;;;;;5057201;28;20691;-74
2023/09/12 00:33:42;;;;;;;36.78;22.55;;;18.60;99.90;;;;;;5033519;28;20048;-74
2023/09/12 00:36:08;;;;;;;39.08;22.85;;;18.60;99.90;;;;;;5036772;28;20532;-74
2023/09/12 00:38:33;;;;;;;38.08;22.10;;;18.50;99.90;;;;;;5033528;28;20664;-74
2023/09/12 00:40:59;;;;;;;40.22;22.80;;;18.50;99.90;;;;;;5045023;28;20522;-75
2023/09/12 00:43:24;;;;;;;37.33;22.65;;;18.60;99.90;;;;;;5029891;28;20071;-74
2023/09/12 00:45:50;;;;;;;39.30;23.15;;;18.50;99.90;;;;;;5031465;28;20040;-75
2023/09/12 00:48:18;;;;;;;37.42;22.52;;;18.50;99.90;;;;;;5047767;28;20040;-74
2023/09/12 00:50:45;;;;;;;41.85;23.40;;;18.50;99.90;;;;;;5033760;28;20033;-75
2023/09/12 00:53:10;;;;;;;36.17;22.08;;;18.50;99.90;;;;;;5048156;28;20165;-75
2023/09/12 00:55:39;;;;;;;34.40;21.55;;;18.50;99.90;;;;;;5051839;28;20774;-75
2023/09/12 00:58:07;;;;;;;36.53;21.77;;;18.50;99.90;;;;;;5064346;28;20040;-75
2023/09/12 01:00:33;;;;;;;36.90;22.02;;;18.50;99.90;;;;;;5047308;28;20617;-75
2023/09/12 01:02:59;;;;;;;39.00;22.17;;;18.50;99.90;;;;;;5027017;28;20076;-75
2023/09/12 01:05:26;;;;;;;33.70;21.08;;;18.50;99.90;;;;;;5038134;28;20518;-76
2023/09/12 01:07:52;;;;;;;34.20;21.35;;;18.40;99.90;;;;;;5032645;28;20075;-75
2023/09/12 01:10:18;;;;;;;35.15;20.60;;;18.40;99.90;;;;;;5034150;28;20087;-75
2023/09/12 01:12:44;;;;;;;37.60;21.17;;;18.40;99.90;;;;;;5055449;28;20048;-75
2023/09/12 01:15:13;;;;;;;36.78;21.77;;;18.30;99.90;;;;;;5033067;28;20040;-76
2023/09/12 01:17:41;;;;;;;36.28;21.92;;;18.30;99.90;;;;;;5035761;28;20036;-76
2023/09/12 01:20:11;;;;;;;39.47;21.08;;;18.20;99.90;;;;;;5030575;28;20407;-75
2023/09/12 01:22:58;;;;;;;39.25;21.95;;;18.20;99.90;;;;;;5056591;28;20465;-75
2023/09/12 01:25:35;;;;;;;36.47;21.15;;;18.10;99.90;;;;;;5027773;28;20049;-76
2023/09/12 01:28:05;;;;;;;43.10;22.33;;;18.10;99.90;;;;;;5049957;28;20127;-75
2023/09/12 01:30:33;;;;;;;36.15;21.48;;;18.10;99.90;;;;;;5045303;28;20643;-75
2023/09/12 01:33:00;;;;;;;37.90;21.65;;;18.00;99.90;;;;;;5065974;28;20411;-75
2023/09/12 01:35:25;;;;;;;35.90;21.15;;;18.00;99.90;;;;;;5047613;28;20116;-76
2023/09/12 01:37:51;;;;;;;39.88;21.00;;;17.90;99.90;;;;;;5050294;28;20597;-75
2023/09/12 01:40:17;;;;;;;35.67;21.45;;;17.90;99.90;;;;;;5044533;28;20098;-75
2023/09/12 01:42:47;;;;;;;36.25;21.17;;;17.90;99.90;;;;;;5042605;28;20041;-75
2023/09/12 01:45:18;;;;;;;36.00;21.52;;;17.80;99.90;;;;;;5032899;28;20048;-75
2023/09/12 01:47:45;;;;;;;41.80;22.20;;;17.80;99.90;;;;;;5044717;28;20124;-75
2023/09/12 01:50:12;;;;;;;39.20;21.88;;;17.70;99.90;;;;;;5041546;28;20036;-76
2023/09/12 01:52:39;;;;;;;36.47;21.58;;;17.70;99.90;;;;;;5034542;28;20485;-75
2023/09/12 01:55:06;;;;;;;37.85;22.13;;;17.60;99.90;;;;;;5044413;28;20029;-75
2023/09/12 01:57:32;;;;;;;38.33;21.58;;;17.60;99.90;;;;;;5032008;28;20043;-76
2023/09/12 01:59:58;;;;;;;41.63;22.02;;;17.60;99.90;;;;;;5049077;28;20056;-76
2023/09/12 02:02:24;;;;;;;38.45;22.65;;;17.70;99.90;;;;;;5045208;28;20037;-75
2023/09/12 02:05:19;;;;;;;42.95;23.48;;;17.80;99.90;;;;;;5031512;28;20040;-75
2023/09/12 02:07:46;;;;;;;40.30;23.35;;;17.80;99.90;;;;;;5047804;28;20135;-75
2023/09/12 02:10:12;;;;;;;40.30;22.50;;;17.90;99.90;;;;;;5043272;28;20055;-76
2023/09/12 02:12:39;;;;;;;42.13;23.23;;;17.90;99.90;;;;;;5047222;28;20037;-75
2023/09/12 02:15:05;;;;;;;39.88;21.98;;;17.90;99.90;;;;;;5030007;28;20064;-76
2023/09/12 02:17:30;;;;;;;46.28;23.45;;;17.80;99.90;;;;;;5038508;28;20123;-75
2023/09/12 02:19:56;;;;;;;40.08;22.13;;;17.80;99.90;;;;;;5047731;28;20467;-76
2023/09/12 02:22:22;;;;;;;43.10;23.15;;;17.80;99.90;;;;;;5044723;28;20044;-75
2023/09/12 02:24:47;;;;;;;45.50;23.02;;;17.70;99.90;;;;;;5031039;28;20045;-76
2023/09/12 02:27:13;;;;;;;48.30;24.30;;;17.70;99.90;;;;;;5033068;28;20071;-76
2023/09/12 02:29:40;;;;;;;40.47;22.30;;;17.60;99.90;;;;;;5031744;28;20123;-76
2023/09/12 02:32:06;;;;;;;42.70;22.35;;;17.60;99.90;;;;;;5051899;28;20051;-75
2023/09/12 02:34:33;;;;;;;40.20;23.58;;;17.50;99.90;;;;;;5045566;28;20044;-76
2023/09/12 02:36:58;;;;;;;44.88;23.60;;;17.40;99.90;;;;;;5027240;28;20036;-75
2023/09/12 02:39:24;;;;;;;41.22;22.30;;;17.40;99.90;;;;;;5057962;28;20105;-75
2023/09/12 02:41:49;;;;;;;39.70;22.05;;;17.40;99.90;;;;;;5031694;28;20124;-76
2023/09/12 02:44:16;;;;;;;39.80;22.48;;;17.30;99.90;;;;;;5043974;28;20137;-75
2023/09/12 02:46:41;;;;;;;42.22;22.95;;;17.30;99.90;;;;;;5029754;28;20089;-76
2023/09/12 02:49:07;;;;;;;48.58;23.58;;;17.30;99.90;;;;;;5053462;28;20036;-75
2023/09/12 02:51:33;;;;;;;46.38;24.58;;;17.30;99.90;;;;;;5053096;28;20067;-75
2023/09/12 02:53:58;;;;;;;43.60;24.73;;;17.40;99.90;;;;;;5051584;28;20273;-75
2023/09/12 02:56:24;;;;;;;45.20;26.00;;;17.50;99.90;;;;;;5025748;28;20029;-75
2023/09/12 02:58:50;;;;;;;45.90;24.33;;;17.60;99.90;;;;;;5028499;28;20036;-75
2023/09/12 03:01:20;;;;;;;44.95;24.30;;;17.70;99.90;;;;;;5050150;28;20047;-74
2023/09/12 03:03:50;;;;;;;48.05;23.95;;;17.80;99.90;;;;;;5049006;28;20044;-75
2023/09/12 03:06:18;;;;;;;41.58;23.30;;;17.90;99.90;;;;;;5046802;28;20072;-76
2023/09/12 03:08:44;;;;;;;40.83;23.80;;;17.90;99.90;;;;;;5049286;28;20182;-75
2023/09/12 03:11:10;;;;;;;48.97;25.67;;;17.90;99.90;;;;;;5033175;28;20060;-75
2023/09/12 03:13:41;;;;;;;43.25;25.15;;;17.80;99.90;;;;;;5053926;28;20039;-75
2023/09/12 03:16:14;;;;;;;45.45;24.02;;;17.90;99.90;;;;;;5058141;28;20045;-75
2023/09/12 03:18:40;;;;;;;43.78;23.80;;;17.80;99.90;;;;;;5047381;28;20058;-75
2023/09/12 03:21:06;;;;;;;43.78;24.52;;;17.80;99.90;;;;;;5056476;28;20040;-75
2023/09/12 03:23:32;;;;;;;45.85;24.83;;;17.80;99.90;;;;;;5025797;28;20120;-76
2023/09/12 03:26:05;;;;;;;41.35;23.35;;;17.80;99.90;;;;;;5032742;28;20036;-76
2023/09/12 03:28:31;;;;;;;44.75;24.20;;;17.80;99.90;;;;;;5023341;28;20076;-76
2023/09/12 03:31:05;;;;;;;43.65;24.17;;;17.70;99.90;;;;;;5032104;28;20563;-76
2023/09/12 03:33:31;;;;;;;44.30;23.38;;;17.60;99.90;;;;;;5047761;28;20089;-76
2023/09/12 03:35:57;;;;;;;42.55;23.60;;;17.50;99.90;;;;;;5027295;28;20041;-76
2023/09/12 03:38:22;;;;;;;47.72;23.60;;;17.30;99.90;;;;;;5051054;28;20029;-76
2023/09/12 03:40:48;;;;;;;44.50;24.23;;;17.30;99.90;;;;;;5040676;28;20049;-76
2023/09/12 03:43:14;;;;;;;45.55;22.88;;;17.20;99.90;;;;;;5041703;28;20040;-76
2023/09/12 03:45:39;;;;;;;46.53;23.65;;;17.20;99.90;;;;;;5045635;28;20041;-76
2023/09/12 03:48:05;;;;;;;44.97;23.33;;;17.20;99.90;;;;;;5038852;28;20036;-76
2023/09/12 03:50:31;;;;;;;52.38;24.13;;;17.10;99.90;;;;;;5026613;28;20700;-76
2023/09/12 03:52:56;;;;;;;42.75;22.73;;;17.10;99.90;;;;;;5037763;28;20491;-76
2023/09/12 03:55:22;;;;;;;40.88;23.02;;;17.10;99.90;;;;;;5028729;28;20037;-76
2023/09/12 03:57:48;;;;;;;48.53;23.95;;;17.00;99.90;;;;;;5047299;28;20043;-77
2023/09/12 04:00:14;;;;;;;42.58;23.55;;;16.90;99.90;;;;;;5018299;28;20456;-77
2023/09/12 04:02:39;;;;;;;42.53;23.20;;;16.90;99.90;;;;;;5055203;28;20040;-77
2023/09/12 04:05:05;;;;;;;47.45;23.70;;;16.80;99.90;;;;;;5032983;28;20033;-79
2023/09/12 04:07:31;;;;;;;43.58;22.33;;;16.80;99.90;;;;;;5044053;28;20048;-79
2023/09/12 04:09:56;;;;;;;41.13;22.67;;;16.80;99.90;;;;;;5025483;28;20124;-78
2023/09/12 04:12:22;;;;;;;40.92;22.52;;;16.80;99.90;;;;;;5019501;28;20044;-79
2023/09/12 04:14:51;;;;;;;63.05;25.00;;;16.80;99.90;;;;;;5046639;28;20548;-79
2023/09/12 04:17:16;;;;;;;51.00;25.15;;;16.80;99.90;;;;;;5049470;28;20040;-79
2023/09/12 04:19:42;;;;;;;94.80;27.13;;;17.00;99.90;;;;;;5046137;28;20149;-79
2023/09/12 04:22:08;;;;;;;69.57;23.25;;;17.00;99.90;;;;;;5043008;28;20048;-79
2023/09/12 04:24:33;;;;;;;48.80;23.95;;;17.00;99.90;;;;;;5048227;28;20601;-79
2023/09/12 04:26:59;;;;;;;71.25;23.23;;;17.00;99.90;;;;;;5039271;28;20071;-79
2023/09/12 04:29:25;;;;;;;85.82;24.73;;;17.00;99.90;;;;;;5027554;28;20067;-79
2023/09/12 04:31:52;;;;;;;43.97;21.13;;;17.10;99.90;;;;;;5038745;28;20033;-78
2023/09/12 04:34:18;;;;;;;64.82;22.92;;;17.00;99.90;;;;;;5026614;28;20077;-79
2023/09/12 04:36:43;;;;;;;36.92;20.75;;;17.00;99.90;;;;;;5030989;28;20037;-79
2023/09/12 04:39:13;;;;;;;64.05;21.00;;;17.00;99.90;;;;;;5036021;28;20037;-79
2023/09/12 04:41:38;;;;;;;36.50;19.98;;;17.00;99.90;;;;;;5034260;28;20132;-79
2023/09/12 04:44:04;;;;;;;53.35;22.05;;;17.00;99.90;;;;;;5033333;28;20187;-79
2023/09/12 04:46:30;;;;;;;51.55;21.35;;;17.00;99.90;;;;;;5051060;28;20406;-79
2023/09/12 04:48:55;;;;;;;51.13;19.42;;;16.90;99.90;;;;;;5034220;28;20047;-79
2023/09/12 04:51:21;;;;;;;42.55;21.17;;;17.00;99.90;;;;;;5051877;28;20044;-79
2023/09/12 04:53:51;;;;;;;38.17;21.30;;;16.90;99.90;;;;;;5049452;28;20036;-78
2023/09/12 04:56:17;;;;;;;35.90;19.92;;;16.90;99.90;;;;;;5029696;28;20044;-79
2023/09/12 04:58:42;;;;;;;34.25;20.05;;;16.90;99.90;;;;;;5030331;28;20402;-79
2023/09/12 05:01:09;;;;;;;36.53;20.17;;;17.00;99.90;;;;;;5051251;28;20509;-80
2023/09/12 05:03:35;;;;;;;44.10;20.55;;;17.10;99.90;;;;;;5035501;28;20043;-78
2023/09/12 05:06:00;;;;;;;38.10;19.60;;;16.90;99.90;;;;;;5055967;28;20036;-80
2023/09/12 05:08:26;;;;;;;39.40;20.85;;;16.90;99.90;;;;;;5048998;28;20412;-78
2023/09/12 05:10:52;;;;;;;35.88;19.88;;;16.80;99.90;;;;;;5048556;28;20028;-78
2023/09/12 05:13:17;;;;;;;37.38;20.77;;;16.90;99.90;;;;;;5034230;28;20507;-78
2023/09/12 05:15:44;;;;;;;53.70;22.02;;;16.90;99.90;;;;;;5032881;28;20040;-78
2023/09/12 05:18:13;;;;;;;60.83;20.58;;;16.90;99.90;;;;;;5043984;28;20154;-78
2023/09/12 05:20:38;;;;;;;69.47;22.42;;;16.90;99.90;;;;;;5051965;28;20506;-78
2023/09/12 05:23:04;;;;;;;88.35;24.27;;;16.90;99.90;;;;;;5032342;28;20116;-78
2023/09/12 05:25:30;;;;;;;87.45;22.05;;;16.80;99.90;;;;;;5028700;28;20395;-77
2023/09/12 05:27:56;;;;;;;57.92;22.75;;;16.80;99.90;;;;;;5024792;28;20033;-78
2023/09/12 05:30:21;;;;;;;63.10;22.52;;;16.80;99.90;;;;;;5030556;28;20040;-79
2023/09/12 05:32:47;;;;;;;41.53;20.70;;;16.70;99.90;;;;;;5031694;28;20868;-79
2023/09/12 05:35:13;;;;;;;56.83;22.70;;;16.80;99.90;;;;;;5047285;28;20059;-79
2023/09/12 05:37:41;;;;;;;56.38;23.13;;;16.80;99.90;;;;;;5033329;28;20095;-79
2023/09/12 05:40:09;;;;;;;91.60;23.38;;;16.80;99.90;;;;;;5031151;28;20063;-79
2023/09/12 05:42:35;;;;;;;46.95;21.58;;;16.80;99.90;;;;;;5029785;28;20132;-79
2023/09/12 05:45:00;;;;;;;65.82;21.83;;;16.80;99.90;;;;;;5031073;28;20485;-79
2023/09/12 05:47:26;;;;;;;87.20;23.90;;;16.80;99.90;;;;;;5046533;28;20047;-79
2023/09/12 05:49:51;;;;;;;101.03;25.02;;;16.90;99.90;;;;;;5029560;28;20433;-79
2023/09/12 05:52:17;;;;;;;71.57;23.25;;;16.90;99.90;;;;;;5029007;28;20044;-80
2023/09/12 05:54:43;;;;;;;61.25;22.42;;;17.00;99.90;;;;;;5028063;28;20079;-79
2023/09/12 05:57:10;;;;;;;66.85;24.98;;;17.00;99.90;;;;;;5056835;28;20039;-77
2023/09/12 05:59:38;;;;;;;56.30;23.10;;;17.00;99.90;;;;;;5024950;28;20041;-79
2023/09/12 06:02:09;;;;;;;49.35;23.90;;;17.10;99.90;;;;;;5030134;28;20045;-80
2023/09/12 06:04:35;;;;;;;79.90;24.60;;;17.20;99.90;;;;;;5029780;28;20098;-79
2023/09/12 06:07:04;;;;;;;76.75;26.00;;;17.30;99.90;;;;;;5024957;28;20045;-79
2023/09/12 06:09:30;;;;;;;53.95;23.63;;;17.40;99.90;;;;;;5033171;28;20041;-79
2023/09/12 06:11:56;;;;;;;55.58;22.98;;;17.40;99.90;;;;;;5034547;28;20382;-80
2023/09/12 06:14:22;;;;;;;46.90;23.45;;;17.50;99.90;;;;;;5044834;28;20114;-79
2023/09/12 06:16:48;;;;;;;43.20;22.45;;;17.60;99.90;;;;;;5034955;28;20044;-80
2023/09/12 06:19:19;;;;;;;47.13;23.05;;;17.70;99.90;;;;;;5029034;28;20612;-80
2023/09/12 06:21:47;;;;;;;60.67;23.58;;;17.70;99.90;;;;;;5030329;28;20033;-79
2023/09/12 06:24:18;;;;;;;58.45;24.40;;;17.80;99.90;;;;;;5030555;28;20044;-80
2023/09/12 06:26:44;;;;;;;48.95;22.15;;;17.80;99.90;;;;;;5034415;28;20078;-79
2023/09/12 06:29:10;;;;;;;38.25;20.92;;;17.90;99.90;;;;;;5031854;28;20502;-79
2023/09/12 06:31:36;;;;;;;40.83;20.85;;;17.80;99.90;;;;;;5038113;28;20044;-76
2023/09/12 06:34:02;;;;;;;41.47;19.80;;;17.80;99.90;;;;;;5030510;28;20123;-75
2023/09/12 06:36:31;;;;;;;35.28;20.63;;;17.70;99.90;;;;;;5023125;28;20490;-77
2023/09/12 06:38:58;;;;;;;34.95;19.58;;;17.80;99.90;;;;;;5029883;28;20163;-76
2023/09/12 06:41:24;;;;;;;35.53;19.73;;;17.80;99.90;;;;;;5034540;28;20048;-76
2023/09/12 06:43:50;;;;;;;42.80;21.63;;;17.80;99.90;;;;;;5044696;28;20033;-76
2023/09/12 06:46:18;;;;;;;31.25;19.27;;;17.90;99.90;;;;;;5028624;28;20047;-76
2023/09/12 06:48:45;;;;;;;33.95;19.75;;;17.90;99.90;;;;;;5037507;28;20387;-76
2023/09/12 06:51:11;;;;;;;31.75;20.10;;;18.00;99.90;;;;;;5033982;28;20072;-76
2023/09/12 06:53:37;;;;;;;34.38;19.52;;;18.00;99.90;;;;;;5033948;28;20395;-77
2023/09/12 06:56:04;;;;;;;34.60;19.15;;;18.10;99.90;;;;;;5035693;28;20123;-75
2023/09/12 06:58:30;;;;;;;32.40;19.90;;;18.10;99.90;;;;;;5037793;28;20119;-75
2023/09/12 07:00:56;;;;;;;33.67;19.45;;;18.20;99.90;;;;;;5027710;28;20467;-75
2023/09/12 07:03:21;;;;;;;31.42;18.88;;;18.30;99.90;;;;;;5033920;28;20044;-76
2023/09/12 07:05:51;;;;;;;30.88;18.73;;;18.40;99.90;;;;;;5045234;28;20040;-76
2023/09/12 07:08:17;;;;;;;34.45;20.65;;;18.50;99.90;;;;;;5061848;28;20032;-76
2023/09/12 07:10:46;;;;;;;34.50;20.13;;;18.60;99.90;;;;;;5025763;28;20419;-76
2023/09/12 07:13:12;;;;;;;34.67;20.52;;;18.80;99.90;;;;;;5045132;28;20190;-76
2023/09/12 07:15:37;;;;;;;32.75;19.08;;;18.90;99.90;;;;;;5045900;28;20610;-76
2023/09/12 07:18:05;;;;;;;33.83;19.40;;;19.00;99.90;;;;;;5027126;28;20483;-75
2023/09/12 07:20:31;;;;;;;35.72;20.02;;;19.10;99.90;;;;;;5032710;28;20040;-75
2023/09/12 07:22:56;;;;;;;33.30;19.90;;;19.20;99.90;;;;;;5037462;28;20376;-76
2023/09/12 07:25:23;;;;;;;36.20;21.25;;;19.30;99.90;;;;;;5034057;28;20047;-76
2023/09/12 07:27:50;;;;;;;36.47;21.70;;;19.40;99.90;;;;;;5029460;28;20032;-76
2023/09/12 07:30:15;;;;;;;37.95;21.42;;;19.40;99.90;;;;;;5045451;28;20091;-75
2023/09/12 07:32:41;;;;;;;39.45;21.17;;;19.50;99.90;;;;;;5048130;28;20539;-76
2023/09/12 07:35:07;;;;;;;36.72;22.15;;;19.60;99.90;;;;;;5048061;28;20178;-76
2023/09/12 07:37:33;;;;;;;41.30;22.05;;;19.80;99.90;;;;;;5068055;28;20116;-76
2023/09/12 07:39:59;;;;;;;38.03;21.13;;;19.80;99.90;;;;;;5043272;28;20526;-77
2023/09/12 07:42:25;;;;;;;37.22;21.95;;;19.70;99.90;;;;;;5036873;28;20108;-75
2023/09/12 07:44:50;;;;;;;35.58;21.83;;;19.70;99.90;;;;;;5032764;28;20133;-77
2023/09/12 07:47:17;;;;;;;39.13;21.67;;;19.80;99.90;;;;;;5024458;28;20159;-76
2023/09/12 07:49:42;;;;;;;42.22;22.20;;;20.00;99.90;;;;;;5053353;28;20032;-75
2023/09/12 07:52:08;;;;;;;36.00;20.67;;;20.10;99.90;;;;;;5033051;28;20047;-76
2023/09/12 07:54:34;;;;;;;39.08;21.25;;;20.20;99.90;;;;;;5041164;28;20110;-76
2023/09/12 07:56:59;;;;;;;39.83;22.48;;;20.30;99.90;;;;;;5028400;28;20479;-76
2023/09/12 07:59:25;;;;;;;36.05;20.75;;;20.50;99.90;;;;;;5051556;28;20033;-76
2023/09/12 08:01:53;;;;;;;38.20;22.50;;;20.70;99.90;;;;;;5020338;28;20029;-76
2023/09/12 08:04:19;;;;;;;39.38;22.10;;;21.00;99.90;;;;;;5031865;28;20057;-76
2023/09/12 08:06:45;;;;;;;40.15;21.98;;;21.10;99.90;;;;;;5031456;28;20124;-76
2023/09/12 08:09:11;;;;;;;37.97;22.27;;;21.30;99.90;;;;;;5036642;28;20508;-77
2023/09/12 08:11:36;;;;;;;36.90;21.90;;;21.10;99.90;;;;;;5054547;28;20040;-77
2023/09/12 08:14:02;;;;;;;36.40;21.75;;;20.70;99.90;;;;;;5053964;28;20114;-77
2023/09/12 08:16:28;;;;;;;38.38;21.17;;;20.50;99.90;;;;;;5036541;28;20090;-76
2023/09/12 08:18:54;;;;;;;34.60;21.52;;;20.50;99.90;;;;;;5035274;28;20051;-76
2023/09/12 08:21:19;;;;;;;38.72;22.15;;;20.60;99.90;;;;;;5036036;28;20135;-76
2023/09/12 08:23:45;;;;;;;38.15;21.48;;;20.70;99.90;;;;;;5049456;28;20045;-76
2023/09/12 08:26:11;;;;;;;38.88;22.55;;;20.70;99.90;;;;;;5035846;28;20040;-75
2023/09/12 08:28:37;;;;;;;35.80;21.08;;;20.70;99.90;;;;;;5036912;28;20375;-76
2023/09/12 08:31:02;;;;;;;38.00;21.60;;;20.80;99.90;;;;;;5033346;28;20047;-76
2023/09/12 08:33:28;;;;;;;36.80;20.60;;;20.80;99.90;;;;;;5050749;28;20048;-76
2023/09/12 08:35:54;;;;;;;39.75;21.98;;;20.80;99.90;;;;;;5061362;28;20035;-76
2023/09/12 08:38:19;;;;;;;33.03;20.00;;;20.70;99.90;;;;;;5035844;28;20494;-76
2023/09/12 08:40:50;;;;;;;34.75;21.40;;;20.70;99.90;;;;;;5034399;28;20116;-76
2023/09/12 08:43:16;;;;;;;35.95;20.42;;;20.70;99.90;;;;;;5041686;28;20045;-75
2023/09/12 08:45:44;;;;;;;35.83;21.58;;;20.70;99.90;;;;;;5034945;28;20048;-75
2023/09/12 08:48:11;;;;;;;34.90;20.55;;;20.70;99.90;;;;;;5031039;28;20089;-76
2023/09/12 08:50:37;;;;;;;34.72;19.85;;;20.60;99.90;;;;;;5035304;28;20062;-75
2023/09/12 08:53:03;;;;;;;32.17;19.05;;;20.60;99.90;;;;;;5030539;28;20037;-76
2023/09/12 08:55:29;;;;;;;34.55;20.30;;;20.50;95.10;;;;;;5049260;28;20032;-76
2023/09/12 08:57:57;;;;;;;36.55;21.08;;;20.50;99.90;;;;;;5029596;28;20494;-75
2023/09/12 09:00:23;;;;;;;32.97;20.45;;;20.60;98.70;;;;;;5051389;28;20037;-75
2023/09/12 09:02:49;;;;;;;33.22;20.20;;;20.60;96.70;;;;;;5028377;28;20063;-75
2023/09/12 09:05:17;;;;;;;33.15;19.75;;;20.70;99.90;;;;;;5034957;28;20042;-75
2023/09/12 09:07:43;;;;;;;29.48;18.90;;;20.90;99.90;;;;;;5045766;28;20373;-75
2023/09/12 09:10:17;;;;;;;32.13;18.80;;;21.30;96.20;;;;;;5037209;28;20106;-75
2023/09/12 09:12:46;;;;;;;33.95;20.50;;;21.60;51.90;;;;;;5050965;28;20102;-75
2023/09/12 09:15:22;;;;;;;35.17;19.98;;;21.90;23.50;;;;;;5065730;28;20578;-75
2023/09/12 09:17:50;;;;;;;32.80;19.02;;;22.10;1.00;;;;;;5032497;28;20083;-75
2023/09/12 09:20:29;;;;;;;30.23;19.23;;;22.30;1.00;;;;;;5034356;28;20036;-75
2023/09/12 09:23:07;;;;;;;28.20;18.08;;;22.30;1.00;;;;;;5067885;28;20794;-75
2023/09/12 09:25:33;;;;;;;30.48;18.00;;;22.30;1.00;;;;;;5035356;28;20042;-76
2023/09/12 09:28:03;;;;;;;27.15;17.35;;;22.20;1.00;;;;;;5033929;28;20398;-75
2023/09/12 09:30:46;;;;;;;29.55;18.10;;;22.30;1.00;;;;;;5034505;28;20080;-75
2023/09/12 09:33:13;;;;;;;29.52;18.42;;;22.50;99.90;;;;;;5031885;28;20118;-76
2023/09/12 09:35:41;;;;;;;30.58;18.30;;;22.50;99.90;;;;;;5034242;28;20037;-75
2023/09/12 09:38:07;;;;;;;32.05;18.92;;;22.60;99.90;;;;;;5034252;28;20140;-76
2023/09/12 09:40:35;;;;;;;30.23;18.52;;;22.90;99.90;;;;;;5044037;28;20132;-75
2023/09/12 09:43:02;;;;;;;29.10;16.90;;;23.20;99.90;;;;;;5026242;28;20048;-76
2023/09/12 09:45:29;;;;;;;29.15;18.30;;;23.30;87.10;;;;;;5045678;28;20048;-76
2023/09/12 09:48:04;;;;;;;29.27;17.90;;;23.40;68.30;;;;;;5051219;28;20411;-76
2023/09/12 09:50:39;;;;;;;30.17;17.42;;;23.40;1.00;;;;;;5046814;28;20040;-76
2023/09/12 09:53:08;;;;;;;27.45;17.30;;;23.50;1.00;;;;;;5039318;28;20406;-76
2023/09/12 09:55:34;;;;;;;28.60;17.77;;;23.60;1.00;;;;;;5032925;28;20595;-76
2023/09/12 09:58:05;;;;;;;26.20;16.63;;;23.70;1.00;;;;;;5028343;28;20040;-75
2023/09/12 10:00:34;;;;;;;24.88;16.05;;;24.20;1.00;;;;;;5052859;28;20106;-76
2023/09/12 10:03:02;;;;;;;25.73;16.52;;;25.00;99.90;;;;;;5046624;28;20036;-76
2023/09/12 10:05:30;;;;;;;24.73;16.48;;;25.60;99.90;;;;;;5031010;28;20036;-76
2023/09/12 10:07:57;;;;;;;24.33;15.32;;;26.00;99.90;;;;;;5028334;28;20059;-76
2023/09/12 10:10:25;;;;;;;24.58;16.80;;;25.90;99.90;;;;;;5046617;28;20047;-75
2023/09/12 10:12:58;;;;;;;27.90;17.85;;;25.30;99.90;;;;;;5050758;28;20449;-76
2023/09/12 10:15:30;;;;;;;27.05;16.30;;;24.70;99.90;;;;;;5046944;28;20046;-76
2023/09/12 10:17:58;;;;;;;24.92;16.48;;;24.30;99.90;;;;;;5028191;28;20040;-75
2023/09/12 10:20:54;;;;;;;27.27;17.17;;;24.10;99.90;;;;;;5039493;28;20033;-76
2023/09/12 10:23:27;;;;;;;28.92;16.92;;;23.90;99.90;;;;;;5028076;28;20047;-76
2023/09/12 10:25:54;;;;;;;30.88;18.52;;;24.10;99.90;;;;;;5044566;28;20052;-76
2023/09/12 10:28:21;;;;;;;27.25;16.88;;;24.30;99.90;;;;;;5037407;28;20041;-76
2023/09/12 10:30:48;;;;;;;24.80;16.20;;;24.30;99.90;;;;;;5031989;28;20036;-76
2023/09/12 10:33:17;;;;;;;27.73;17.08;;;24.30;99.90;;;;;;5049030;28;20589;-76
2023/09/12 10:35:45;;;;;;;28.58;17.38;;;24.60;99.90;;;;;;5029899;28;20032;-76
2023/09/12 10:38:14;;;;;;;29.45;17.50;;;24.60;99.90;;;;;;5030037;28;20032;-76
2023/09/12 10:40:50;;;;;;;26.50;17.48;;;24.50;99.90;;;;;;5045882;28;20162;-75
2023/09/12 10:43:16;;;;;;;30.67;18.08;;;24.50;99.90;;;;;;5027266;28;20047;-75
2023/09/12 10:45:45;;;;;;;26.23;16.75;;;24.50;99.90;;;;;;5050162;28;20052;-75
2023/09/12 10:48:11;;;;;;;25.63;15.68;;;24.50;99.90;;;;;;5041601;28;20170;-75
2023/09/12 10:50:39;;;;;;;27.48;16.58;;;24.70;99.90;;;;;;5032006;28;20119;-75
2023/09/12 10:53:12;;;;;;;29.08;17.27;;;25.20;99.90;;;;;;5048213;28;20112;-75
2023/09/12 10:55:38;;;;;;;26.35;17.38;;;25.90;99.90;;;;;;5031887;28;20040;-75
2023/09/12 10:58:05;;;;;;;28.23;17.75;;;26.30;96.80;;;;;;5043841;28;20039;-75
2023/09/12 11:00:34;;;;;;;30.75;17.58;;;26.40;43.60;;;;;;5033490;28;20047;-75
2023/09/12 11:03:29;;;;;;;20.73;14.90;;;26.40;64.60;;;;;;5040865;28;20422;-75
2023/09/12 11:05:55;;;;;;;24.70;16.17;;;26.40;59.60;;;;;;5016069;28;20041;-75
2023/09/12 11:08:22;;;;;;;24.90;15.70;;;26.40;66.80;;;;;;5030654;28;20040;-75
2023/09/12 11:11:16;;;;;;;23.65;15.60;;;26.30;51.00;;;;;;5051905;28;20044;-75
2023/09/12 11:13:43;;;;;;;22.98;15.73;;;26.20;36.50;;;;;;5048749;28;20055;-75
2023/09/12 11:16:20;;;;;;;24.90;16.48;;;26.20;73.10;;;;;;5052401;28;20085;-75
2023/09/12 11:19:19;;;;;;;22.42;14.98;;;26.20;27.00;;;;;;5031048;28;20048;-75
2023/09/12 11:22:20;;;;;;;23.00;15.23;;;26.20;68.10;;;;;;5022706;28;20074;-75
2023/09/12 11:24:49;;;;;;;24.40;15.52;;;26.50;85.20;;;;;;5041751;28;20048;-75
2023/09/12 11:27:14;;;;;;;23.60;16.20;;;27.10;42.20;;;;;;5031770;28;20139;-75
2023/09/12 11:29:40;;;;;;;23.42;15.52;;;27.80;4.60;;;;;;5024511;28;20574;-75
2023/09/12 11:32:07;;;;;;;25.20;16.10;;;29.00;1.00;;;;;;5060218;28;20037;-75
2023/09/12 11:34:37;;;;;;;20.08;14.93;;;30.50;1.00;;;;;;5025262;28;20495;-75
2023/09/12 11:37:04;;;;;;;19.45;14.20;;;31.40;1.00;;;;;;5027045;28;20120;-75
2023/09/12 11:39:33;;;;;;;19.60;13.88;;;31.50;1.00;;;;;;5033060;28;20200;-76
2023/09/12 11:42:00;;;;;;;17.77;13.63;;;31.30;1.00;;;;;;5048374;28;20051;-76
2023/09/12 11:44:26;;;;;;;18.00;12.80;;;31.00;1.00;;;;;;5040662;28;20045;-76
2023/09/12 11:46:53;;;;;;;18.95;13.05;;;30.20;1.00;;;;;;5042567;28;20120;-76
2023/09/12 11:49:19;;;;;;;17.70;12.98;;;29.50;1.00;;;;;;5048024;28;20049;-76
2023/09/12 11:51:50;;;;;;;15.98;11.98;;;29.00;1.00;;;;;;5037524;28;20521;-75
2023/09/12 11:54:34;;;;;;;16.63;12.25;;;28.30;1.00;;;;;;5032313;28;20455;-76
2023/09/12 11:57:02;;;;;;;18.70;12.35;;;28.30;1.00;;;;;;5046929;28;20042;-76
2023/09/12 11:59:28;;;;;;;17.10;10.93;;;27.70;1.00;;;;;;5035623;28;20033;-75
2023/09/12 12:01:55;;;;;;;16.50;11.07;;;27.10;1.00;;;;;;5053723;28;20040;-75
2023/09/12 12:04:22;;;;;;;15.43;10.70;;;26.40;1.00;;;;;;5037368;28;20044;-75
2023/09/12 12:06:50;;;;;;;15.55;11.43;;;25.80;1.00;;;;;;5053509;28;20054;-75
2023/09/12 12:09:19;;;;;;;18.55;12.32;;;25.40;1.00;;;;;;5037498;28;20036;-75
2023/09/12 12:11:45;;;;;;;18.80;12.45;;;25.10;1.00;;;;;;5046627;28;20047;-75
2023/09/12 12:14:14;;;;;;;19.35;11.63;;;24.90;1.00;;;;;;5040759;28;20039;-76
2023/09/12 12:16:41;;;;;;;18.63;11.45;;;24.70;1.00;;;;;;5034340;28;20064;-75
2023/09/12 12:19:07;;;;;;;16.17;11.55;;;24.70;1.00;;;;;;5040754;28;20422;-76
2023/09/12 12:21:33;;;;;;;22.73;12.75;;;24.80;1.00;;;;;;5051817;28;20043;-76
2023/09/12 12:24:03;;;;;;;18.08;12.80;;;24.90;1.00;;;;;;5035500;28;20067;-76
2023/09/12 12:26:30;;;;;;;17.77;12.00;;;25.50;1.00;;;;;;5049934;28;20078;-75
2023/09/12 12:28:56;;;;;;;18.70;11.45;;;27.20;1.00;;;;;;5053631;28;20068;-75
2023/09/12 12:31:24;;;;;;;17.50;12.02;;;28.10;1.00;;;;;;5042841;28;20079;-76